sensor_id;sensor_type;location;lat;lon;timestamp;P1;durP1;ratioP1;P2;durP2;ratioP2
33148;SDS011;19506;51.040;3.856;2023-08-12T00:00:10;45.47;;;16.35;;
33148;SDS011;19506;51.040;3.856;2023-08-12T00:02:40;43.55;;;15.98;;
33148;SDS011;19506;51.040;3.856;2023-08-12T00:05:07;43.00;;;15.88;;
33148;SDS011;19506;51.040;3.856;2023-08-12T00:07:33;57.55;;;17.42;;
33148;SDS011;19506;51.040;3.856;2023-08-12T00:10:00;41.55;;;15.68;;
33148;SDS011;19506;51.040;3.856;2023-08-12T00:12:28;41.50;;;15.70;;
33148;SDS011;19506;51.040;3.856;2023-08-12T00:14:54;44.20;;;15.48;;
33148;SDS011;19506;51.040;3.856;2023-08-12T00:17:20;41.15;;;15.95;;
33148;SDS011;19506;51.040;3.856;2023-08-12T00:19:46;48.45;;;17.60;;
33148;SDS011;19506;51.040;3.856;2023-08-12T00:22:11;46.50;;;15.82;;
33148;SDS011;19506;51.040;3.856;2023-08-12T00:24:38;32.13;;;13.27;;
33148;SDS011;19506;51.040;3.856;2023-08-12T00:27:04;37.33;;;15.77;;
33148;SDS011;19506;51.040;3.856;2023-08-12T00:29:31;39.40;;;15.15;;
33148;SDS011;19506;51.040;3.856;2023-08-12T00:31:57;35.70;;;13.88;;
33148;SDS011;19506;51.040;3.856;2023-08-12T00:34:23;35.47;;;13.95;;
33148;SDS011;19506;51.040;3.856;2023-08-12T00:36:49;43.40;;;15.27;;
33148;SDS011;19506;51.040;3.856;2023-08-12T00:39:14;37.80;;;15.57;;
33148;SDS011;19506;51.040;3.856;2023-08-12T00:41:40;46.08;;;15.30;;
33148;SDS011;19506;51.040;3.856;2023-08-12T00:44:06;40.75;;;14.18;;
33148;SDS011;19506;51.040;3.856;2023-08-12T00:46:32;36.42;;;14.27;;
33148;SDS011;19506;51.040;3.856;2023-08-12T00:48:59;39.78;;;13.30;;
33148;SDS011;19506;51.040;3.856;2023-08-12T00:51:25;39.70;;;13.32;;
33148;SDS011;19506;51.040;3.856;2023-08-12T00:53:51;38.78;;;13.98;;
33148;SDS011;19506;51.040;3.856;2023-08-12T00:56:17;42.63;;;14.60;;
33148;SDS011;19506;51.040;3.856;2023-08-12T00:58:43;35.63;;;13.38;;
33148;SDS011;19506;51.040;3.856;2023-08-12T01:01:10;33.90;;;13.48;;
33148;SDS011;19506;51.040;3.856;2023-08-12T01:03:37;31.42;;;13.30;;
33148;SDS011;19506;51.040;3.856;2023-08-12T01:06:02;32.83;;;12.75;;
33148;SDS011;19506;51.040;3.856;2023-08-12T01:08:29;36.65;;;12.88;;
33148;SDS011;19506;51.040;3.856;2023-08-12T01:10:58;35.67;;;13.57;;
33148;SDS011;19506;51.040;3.856;2023-08-12T01:16:11;29.52;;;11.65;;
33148;SDS011;19506;51.040;3.856;2023-08-12T01:18:41;32.08;;;13.18;;
33148;SDS011;19506;51.040;3.856;2023-08-12T01:21:07;32.05;;;11.95;;
33148;SDS011;19506;51.040;3.856;2023-08-12T01:23:37;26.70;;;11.70;;
33148;SDS011;19506;51.040;3.856;2023-08-12T01:26:04;30.05;;;12.20;;
33148;SDS011;19506;51.040;3.856;2023-08-12T01:28:29;35.50;;;12.65;;
33148;SDS011;19506;51.040;3.856;2023-08-12T01:30:56;31.52;;;12.38;;
33148;SDS011;19506;51.040;3.856;2023-08-12T01:33:44;33.95;;;12.52;;
33148;SDS011;19506;51.040;3.856;2023-08-12T01:36:17;34.50;;;11.93;;
33148;SDS011;19506;51.040;3.856;2023-08-12T01:38:45;27.75;;;11.35;;
33148;SDS011;19506;51.040;3.856;2023-08-12T01:41:12;29.27;;;10.80;;
33148;SDS011;19506;51.040;3.856;2023-08-12T01:43:39;28.15;;;10.93;;
33148;SDS011;19506;51.040;3.856;2023-08-12T01:46:06;27.13;;;12.20;;
33148;SDS011;19506;51.040;3.856;2023-08-12T01:48:32;31.30;;;11.48;;
33148;SDS011;19506;51.040;3.856;2023-08-12T01:50:57;29.55;;;11.35;;
33148;SDS011;19506;51.040;3.856;2023-08-12T01:53:23;31.67;;;11.43;;
33148;SDS011;19506;51.040;3.856;2023-08-12T01:55:49;32.13;;;11.63;;
33148;SDS011;19506;51.040;3.856;2023-08-12T01:58:15;24.52;;;10.35;;
33148;SDS011;19506;51.040;3.856;2023-08-12T02:00:41;28.27;;;11.02;;
33148;SDS011;19506;51.040;3.856;2023-08-12T02:03:06;35.17;;;11.60;;
33148;SDS011;19506;51.040;3.856;2023-08-12T02:05:32;28.13;;;11.52;;
33148;SDS011;19506;51.040;3.856;2023-08-12T02:07:58;29.40;;;11.95;;
33148;SDS011;19506;51.040;3.856;2023-08-12T02:10:24;32.28;;;11.75;;
33148;SDS011;19506;51.040;3.856;2023-08-12T02:12:50;26.80;;;10.57;;
33148;SDS011;19506;51.040;3.856;2023-08-12T02:15:15;27.23;;;10.35;;
33148;SDS011;19506;51.040;3.856;2023-08-12T02:17:42;30.85;;;11.68;;
33148;SDS011;19506;51.040;3.856;2023-08-12T02:20:07;26.58;;;10.15;;
33148;SDS011;19506;51.040;3.856;2023-08-12T02:22:33;33.35;;;10.45;;
33148;SDS011;19506;51.040;3.856;2023-08-12T02:24:59;25.08;;;10.40;;
33148;SDS011;19506;51.040;3.856;2023-08-12T02:27:25;25.70;;;10.10;;
33148;SDS011;19506;51.040;3.856;2023-08-12T02:29:50;28.98;;;9.70;;
33148;SDS011;19506;51.040;3.856;2023-08-12T02:32:16;29.05;;;10.65;;
33148;SDS011;19506;51.040;3.856;2023-08-12T02:34:42;21.35;;;9.27;;
33148;SDS011;19506;51.040;3.856;2023-08-12T02:37:07;25.50;;;10.38;;
33148;SDS011;19506;51.040;3.856;2023-08-12T02:39:33;24.73;;;9.32;;
33148;SDS011;19506;51.040;3.856;2023-08-12T02:41:59;22.25;;;9.57;;
33148;SDS011;19506;51.040;3.856;2023-08-12T02:44:24;24.60;;;8.68;;
33148;SDS011;19506;51.040;3.856;2023-08-12T02:46:50;23.27;;;9.35;;
33148;SDS011;19506;51.040;3.856;2023-08-12T02:49:16;19.92;;;9.48;;
33148;SDS011;19506;51.040;3.856;2023-08-12T02:51:41;22.02;;;9.35;;
33148;SDS011;19506;51.040;3.856;2023-08-12T02:54:07;19.05;;;8.45;;
33148;SDS011;19506;51.040;3.856;2023-08-12T02:56:33;23.88;;;9.00;;
33148;SDS011;19506;51.040;3.856;2023-08-12T02:58:58;21.20;;;8.52;;
33148;SDS011;19506;51.040;3.856;2023-08-12T03:01:24;23.58;;;9.50;;
33148;SDS011;19506;51.040;3.856;2023-08-12T03:03:50;21.98;;;9.40;;
33148;SDS011;19506;51.040;3.856;2023-08-12T03:06:15;22.35;;;9.15;;
33148;SDS011;19506;51.040;3.856;2023-08-12T03:08:41;21.98;;;8.63;;
33148;SDS011;19506;51.040;3.856;2023-08-12T03:11:07;23.02;;;8.88;;
33148;SDS011;19506;51.040;3.856;2023-08-12T03:13:32;20.65;;;8.10;;
33148;SDS011;19506;51.040;3.856;2023-08-12T03:15:58;26.23;;;9.35;;
33148;SDS011;19506;51.040;3.856;2023-08-12T03:18:24;19.42;;;9.35;;
33148;SDS011;19506;51.040;3.856;2023-08-12T03:20:49;16.83;;;7.25;;
33148;SDS011;19506;51.040;3.856;2023-08-12T03:23:16;18.85;;;8.63;;
33148;SDS011;19506;51.040;3.856;2023-08-12T03:25:42;23.30;;;8.35;;
33148;SDS011;19506;51.040;3.856;2023-08-12T03:28:08;19.10;;;8.63;;
33148;SDS011;19506;51.040;3.856;2023-08-12T03:30:33;24.55;;;8.65;;
33148;SDS011;19506;51.040;3.856;2023-08-12T03:32:59;19.50;;;7.55;;
33148;SDS011;19506;51.040;3.856;2023-08-12T03:35:25;18.33;;;7.47;;
33148;SDS011;19506;51.040;3.856;2023-08-12T03:37:50;18.70;;;8.07;;
33148;SDS011;19506;51.040;3.856;2023-08-12T03:40:17;16.95;;;7.75;;
33148;SDS011;19506;51.040;3.856;2023-08-12T03:42:43;21.58;;;8.55;;
33148;SDS011;19506;51.040;3.856;2023-08-12T03:45:08;17.35;;;8.60;;
33148;SDS011;19506;51.040;3.856;2023-08-12T03:47:34;21.27;;;8.40;;
33148;SDS011;19506;51.040;3.856;2023-08-12T03:50:00;17.10;;;7.47;;
33148;SDS011;19506;51.040;3.856;2023-08-12T03:52:26;17.60;;;8.02;;
33148;SDS011;19506;51.040;3.856;2023-08-12T03:54:52;16.83;;;7.55;;
33148;SDS011;19506;51.040;3.856;2023-08-12T03:57:18;16.50;;;8.05;;
33148;SDS011;19506;51.040;3.856;2023-08-12T03:59:43;17.38;;;7.40;;
33148;SDS011;19506;51.040;3.856;2023-08-12T04:02:09;14.32;;;7.65;;
33148;SDS011;19506;51.040;3.856;2023-08-12T04:04:35;16.90;;;6.72;;
33148;SDS011;19506;51.040;3.856;2023-08-12T04:07:01;15.20;;;7.03;;
33148;SDS011;19506;51.040;3.856;2023-08-12T04:09:27;12.02;;;6.45;;
33148;SDS011;19506;51.040;3.856;2023-08-12T04:11:52;20.38;;;8.30;;
33148;SDS011;19506;51.040;3.856;2023-08-12T04:14:18;14.30;;;6.78;;
33148;SDS011;19506;51.040;3.856;2023-08-12T04:16:44;19.55;;;6.63;;
33148;SDS011;19506;51.040;3.856;2023-08-12T04:19:09;15.40;;;6.25;;
33148;SDS011;19506;51.040;3.856;2023-08-12T04:21:35;18.45;;;7.45;;
33148;SDS011;19506;51.040;3.856;2023-08-12T04:24:01;14.00;;;6.82;;
33148;SDS011;19506;51.040;3.856;2023-08-12T04:26:27;15.52;;;6.45;;
33148;SDS011;19506;51.040;3.856;2023-08-12T04:28:53;17.23;;;7.05;;
33148;SDS011;19506;51.040;3.856;2023-08-12T04:31:18;14.35;;;6.80;;
33148;SDS011;19506;51.040;3.856;2023-08-12T04:33:44;17.52;;;7.25;;
33148;SDS011;19506;51.040;3.856;2023-08-12T04:36:10;15.25;;;6.40;;
33148;SDS011;19506;51.040;3.856;2023-08-12T04:38:35;19.60;;;6.82;;
33148;SDS011;19506;51.040;3.856;2023-08-12T04:41:01;10.20;;;5.82;;
33148;SDS011;19506;51.040;3.856;2023-08-12T04:43:27;19.60;;;6.65;;
33148;SDS011;19506;51.040;3.856;2023-08-12T04:45:53;17.80;;;6.57;;
33148;SDS011;19506;51.040;3.856;2023-08-12T04:48:18;16.80;;;7.20;;
33148;SDS011;19506;51.040;3.856;2023-08-12T04:50:44;17.05;;;7.28;;
33148;SDS011;19506;51.040;3.856;2023-08-12T04:53:10;18.70;;;6.53;;
33148;SDS011;19506;51.040;3.856;2023-08-12T04:55:35;14.65;;;6.32;;
33148;SDS011;19506;51.040;3.856;2023-08-12T04:58:02;16.33;;;6.45;;
33148;SDS011;19506;51.040;3.856;2023-08-12T05:00:28;12.18;;;6.00;;
33148;SDS011;19506;51.040;3.856;2023-08-12T05:02:54;10.38;;;5.85;;
33148;SDS011;19506;51.040;3.856;2023-08-12T05:05:19;15.00;;;6.30;;
33148;SDS011;19506;51.040;3.856;2023-08-12T05:07:45;12.90;;;5.88;;
33148;SDS011;19506;51.040;3.856;2023-08-12T05:10:17;11.57;;;6.13;;
33148;SDS011;19506;51.040;3.856;2023-08-12T05:12:44;13.73;;;5.78;;
33148;SDS011;19506;51.040;3.856;2023-08-12T05:15:12;13.40;;;5.70;;
33148;SDS011;19506;51.040;3.856;2023-08-12T05:17:38;13.05;;;6.03;;
33148;SDS011;19506;51.040;3.856;2023-08-12T05:20:04;12.75;;;5.95;;
33148;SDS011;19506;51.040;3.856;2023-08-12T05:22:30;17.67;;;6.20;;
33148;SDS011;19506;51.040;3.856;2023-08-12T05:24:56;14.15;;;5.28;;
33148;SDS011;19506;51.040;3.856;2023-08-12T05:27:22;12.65;;;5.38;;
33148;SDS011;19506;51.040;3.856;2023-08-12T05:29:47;15.63;;;5.57;;
33148;SDS011;19506;51.040;3.856;2023-08-12T05:32:13;13.63;;;5.63;;
33148;SDS011;19506;51.040;3.856;2023-08-12T05:34:38;10.45;;;5.05;;
33148;SDS011;19506;51.040;3.856;2023-08-12T05:37:04;12.20;;;5.50;;
33148;SDS011;19506;51.040;3.856;2023-08-12T05:39:30;14.65;;;6.53;;
33148;SDS011;19506;51.040;3.856;2023-08-12T05:41:56;12.50;;;4.85;;
33148;SDS011;19506;51.040;3.856;2023-08-12T05:44:21;13.80;;;5.65;;
33148;SDS011;19506;51.040;3.856;2023-08-12T05:46:47;14.40;;;5.72;;
33148;SDS011;19506;51.040;3.856;2023-08-12T05:49:13;8.60;;;5.07;;
33148;SDS011;19506;51.040;3.856;2023-08-12T05:51:39;12.07;;;5.10;;
33148;SDS011;19506;51.040;3.856;2023-08-12T05:54:04;10.25;;;4.78;;
33148;SDS011;19506;51.040;3.856;2023-08-12T05:56:30;20.80;;;6.15;;
33148;SDS011;19506;51.040;3.856;2023-08-12T05:58:56;16.88;;;5.50;;
33148;SDS011;19506;51.040;3.856;2023-08-12T06:01:21;17.60;;;5.05;;
33148;SDS011;19506;51.040;3.856;2023-08-12T06:03:47;11.73;;;4.82;;
33148;SDS011;19506;51.040;3.856;2023-08-12T06:06:13;14.35;;;4.50;;
33148;SDS011;19506;51.040;3.856;2023-08-12T06:08:38;15.15;;;6.50;;
33148;SDS011;19506;51.040;3.856;2023-08-12T06:11:04;19.63;;;5.82;;
33148;SDS011;19506;51.040;3.856;2023-08-12T06:13:30;14.18;;;5.97;;
33148;SDS011;19506;51.040;3.856;2023-08-12T06:15:55;13.45;;;5.82;;
33148;SDS011;19506;51.040;3.856;2023-08-12T06:18:22;19.33;;;5.60;;
33148;SDS011;19506;51.040;3.856;2023-08-12T06:20:47;20.70;;;5.72;;
33148;SDS011;19506;51.040;3.856;2023-08-12T06:23:13;16.10;;;6.10;;
33148;SDS011;19506;51.040;3.856;2023-08-12T06:25:39;15.93;;;5.30;;
33148;SDS011;19506;51.040;3.856;2023-08-12T06:28:05;20.70;;;7.13;;
33148;SDS011;19506;51.040;3.856;2023-08-12T06:30:33;16.02;;;5.72;;
33148;SDS011;19506;51.040;3.856;2023-08-12T06:32:59;15.27;;;5.25;;
33148;SDS011;19506;51.040;3.856;2023-08-12T06:35:24;23.17;;;6.80;;
33148;SDS011;19506;51.040;3.856;2023-08-12T06:37:50;21.98;;;6.70;;
33148;SDS011;19506;51.040;3.856;2023-08-12T06:40:15;16.77;;;6.85;;
33148;SDS011;19506;51.040;3.856;2023-08-12T06:42:42;13.50;;;5.72;;
33148;SDS011;19506;51.040;3.856;2023-08-12T06:45:08;15.90;;;6.10;;
33148;SDS011;19506;51.040;3.856;2023-08-12T06:47:34;21.40;;;6.53;;
33148;SDS011;19506;51.040;3.856;2023-08-12T06:49:59;15.55;;;6.32;;
33148;SDS011;19506;51.040;3.856;2023-08-12T06:52:25;13.98;;;5.30;;
33148;SDS011;19506;51.040;3.856;2023-08-12T06:54:51;19.45;;;6.13;;
33148;SDS011;19506;51.040;3.856;2023-08-12T06:57:16;28.90;;;5.85;;
33148;SDS011;19506;51.040;3.856;2023-08-12T06:59:42;19.83;;;6.53;;
33148;SDS011;19506;51.040;3.856;2023-08-12T07:02:08;11.80;;;5.03;;
33148;SDS011;19506;51.040;3.856;2023-08-12T07:04:34;13.95;;;5.63;;
33148;SDS011;19506;51.040;3.856;2023-08-12T07:06:59;17.63;;;6.88;;
33148;SDS011;19506;51.040;3.856;2023-08-12T07:09:25;13.98;;;4.90;;
33148;SDS011;19506;51.040;3.856;2023-08-12T07:11:51;15.15;;;5.82;;
33148;SDS011;19506;51.040;3.856;2023-08-12T07:14:17;10.82;;;5.18;;
33148;SDS011;19506;51.040;3.856;2023-08-12T07:16:43;18.77;;;5.30;;
33148;SDS011;19506;51.040;3.856;2023-08-12T07:19:08;15.90;;;5.55;;
33148;SDS011;19506;51.040;3.856;2023-08-12T07:21:34;14.52;;;5.38;;
33148;SDS011;19506;51.040;3.856;2023-08-12T07:24:00;12.38;;;5.50;;
33148;SDS011;19506;51.040;3.856;2023-08-12T07:26:26;14.35;;;4.88;;
33148;SDS011;19506;51.040;3.856;2023-08-12T07:28:51;15.63;;;5.40;;
33148;SDS011;19506;51.040;3.856;2023-08-12T07:31:17;12.85;;;5.20;;
33148;SDS011;19506;51.040;3.856;2023-08-12T07:33:43;15.82;;;5.53;;
33148;SDS011;19506;51.040;3.856;2023-08-12T07:36:09;14.13;;;4.82;;
33148;SDS011;19506;51.040;3.856;2023-08-12T07:38:34;11.93;;;4.43;;
33148;SDS011;19506;51.040;3.856;2023-08-12T07:41:00;13.02;;;4.63;;
33148;SDS011;19506;51.040;3.856;2023-08-12T07:43:26;10.85;;;4.35;;
33148;SDS011;19506;51.040;3.856;2023-08-12T07:45:52;12.07;;;4.25;;
33148;SDS011;19506;51.040;3.856;2023-08-12T07:48:18;13.13;;;4.47;;
33148;SDS011;19506;51.040;3.856;2023-08-12T07:50:44;12.20;;;4.47;;
33148;SDS011;19506;51.040;3.856;2023-08-12T07:53:10;10.35;;;4.50;;
33148;SDS011;19506;51.040;3.856;2023-08-12T07:55:36;11.38;;;4.40;;
33148;SDS011;19506;51.040;3.856;2023-08-12T07:58:02;12.77;;;3.88;;
33148;SDS011;19506;51.040;3.856;2023-08-12T08:00:29;14.35;;;4.38;;
33148;SDS011;19506;51.040;3.856;2023-08-12T08:02:55;12.00;;;4.40;;
33148;SDS011;19506;51.040;3.856;2023-08-12T08:05:20;14.43;;;4.30;;
33148;SDS011;19506;51.040;3.856;2023-08-12T08:07:46;10.45;;;4.35;;
33148;SDS011;19506;51.040;3.856;2023-08-12T08:10:12;8.63;;;3.60;;
33148;SDS011;19506;51.040;3.856;2023-08-12T08:12:38;17.15;;;4.22;;
33148;SDS011;19506;51.040;3.856;2023-08-12T08:15:04;8.75;;;4.10;;
33148;SDS011;19506;51.040;3.856;2023-08-12T08:17:30;11.32;;;4.07;;
33148;SDS011;19506;51.040;3.856;2023-08-12T08:19:55;13.75;;;4.47;;
33148;SDS011;19506;51.040;3.856;2023-08-12T08:22:21;8.55;;;4.32;;
33148;SDS011;19506;51.040;3.856;2023-08-12T08:24:47;10.27;;;4.32;;
33148;SDS011;19506;51.040;3.856;2023-08-12T08:27:12;11.75;;;3.78;;
33148;SDS011;19506;51.040;3.856;2023-08-12T08:29:39;11.85;;;4.45;;
33148;SDS011;19506;51.040;3.856;2023-08-12T08:32:05;9.43;;;4.10;;
33148;SDS011;19506;51.040;3.856;2023-08-12T08:34:31;13.88;;;4.05;;
33148;SDS011;19506;51.040;3.856;2023-08-12T08:36:56;15.05;;;4.72;;
33148;SDS011;19506;51.040;3.856;2023-08-12T08:39:22;12.48;;;3.92;;
33148;SDS011;19506;51.040;3.856;2023-08-12T08:41:49;13.55;;;3.38;;
33148;SDS011;19506;51.040;3.856;2023-08-12T08:44:14;8.23;;;3.45;;
33148;SDS011;19506;51.040;3.856;2023-08-12T08:46:41;9.45;;;3.55;;
33148;SDS011;19506;51.040;3.856;2023-08-12T08:49:08;8.63;;;3.78;;
33148;SDS011;19506;51.040;3.856;2023-08-12T08:51:36;12.30;;;3.63;;
33148;SDS011;19506;51.040;3.856;2023-08-12T08:54:02;8.13;;;2.95;;
33148;SDS011;19506;51.040;3.856;2023-08-12T08:56:30;7.43;;;2.58;;
33148;SDS011;19506;51.040;3.856;2023-08-12T08:58:57;13.13;;;2.85;;
33148;SDS011;19506;51.040;3.856;2023-08-12T09:01:23;8.45;;;2.22;;
33148;SDS011;19506;51.040;3.856;2023-08-12T09:03:53;8.30;;;2.80;;
33148;SDS011;19506;51.040;3.856;2023-08-12T09:06:20;7.43;;;2.75;;
33148;SDS011;19506;51.040;3.856;2023-08-12T09:08:47;7.07;;;2.50;;
33148;SDS011;19506;51.040;3.856;2023-08-12T09:11:16;7.32;;;2.17;;
33148;SDS011;19506;51.040;3.856;2023-08-12T09:13:42;9.10;;;2.55;;
33148;SDS011;19506;51.040;3.856;2023-08-12T09:16:08;9.35;;;2.10;;
33148;SDS011;19506;51.040;3.856;2023-08-12T09:18:34;9.63;;;2.65;;
33148;SDS011;19506;51.040;3.856;2023-08-12T09:21:01;9.57;;;2.65;;
33148;SDS011;19506;51.040;3.856;2023-08-12T09:23:27;7.32;;;2.28;;
33148;SDS011;19506;51.040;3.856;2023-08-12T09:25:53;7.88;;;2.55;;
33148;SDS011;19506;51.040;3.856;2023-08-12T09:28:19;7.03;;;2.05;;
33148;SDS011;19506;51.040;3.856;2023-08-12T09:30:54;9.45;;;2.72;;
33148;SDS011;19506;51.040;3.856;2023-08-12T09:33:25;13.45;;;2.90;;
33148;SDS011;19506;51.040;3.856;2023-08-12T09:35:51;11.57;;;2.05;;
33148;SDS011;19506;51.040;3.856;2023-08-12T09:38:18;9.65;;;1.98;;
33148;SDS011;19506;51.040;3.856;2023-08-12T09:40:46;5.43;;;2.80;;
33148;SDS011;19506;51.040;3.856;2023-08-12T09:43:12;6.57;;;2.72;;
33148;SDS011;19506;51.040;3.856;2023-08-12T09:45:38;7.65;;;2.22;;
33148;SDS011;19506;51.040;3.856;2023-08-12T09:48:03;23.80;;;3.80;;
33148;SDS011;19506;51.040;3.856;2023-08-12T09:50:30;4.97;;;1.90;;
33148;SDS011;19506;51.040;3.856;2023-08-12T09:52:55;9.30;;;2.42;;
33148;SDS011;19506;51.040;3.856;2023-08-12T09:55:23;15.57;;;3.05;;
33148;SDS011;19506;51.040;3.856;2023-08-12T09:57:53;6.78;;;2.03;;
33148;SDS011;19506;51.040;3.856;2023-08-12T10:00:23;6.32;;;2.42;;
33148;SDS011;19506;51.040;3.856;2023-08-12T10:02:51;9.35;;;2.35;;
33148;SDS011;19506;51.040;3.856;2023-08-12T10:07:49;14.98;;;3.25;;
33148;SDS011;19506;51.040;3.856;2023-08-12T10:10:15;10.20;;;2.30;;
33148;SDS011;19506;51.040;3.856;2023-08-12T10:12:41;6.72;;;2.53;;
33148;SDS011;19506;51.040;3.856;2023-08-12T10:15:07;6.88;;;2.30;;
33148;SDS011;19506;51.040;3.856;2023-08-12T10:17:34;15.57;;;2.72;;
33148;SDS011;19506;51.040;3.856;2023-08-12T10:20:06;18.25;;;2.88;;
33148;SDS011;19506;51.040;3.856;2023-08-12T10:22:34;10.90;;;2.92;;
33148;SDS011;19506;51.040;3.856;2023-08-12T10:25:04;17.40;;;2.63;;
33148;SDS011;19506;51.040;3.856;2023-08-12T10:27:33;19.35;;;2.88;;
33148;SDS011;19506;51.040;3.856;2023-08-12T10:29:58;12.52;;;2.50;;
33148;SDS011;19506;51.040;3.856;2023-08-12T10:32:27;11.68;;;2.85;;
33148;SDS011;19506;51.040;3.856;2023-08-12T10:34:55;17.63;;;2.90;;
33148;SDS011;19506;51.040;3.856;2023-08-12T10:37:25;9.75;;;2.85;;
33148;SDS011;19506;51.040;3.856;2023-08-12T10:39:52;9.10;;;2.75;;
33148;SDS011;19506;51.040;3.856;2023-08-12T10:45:13;12.05;;;2.50;;
33148;SDS011;19506;51.040;3.856;2023-08-12T10:47:40;11.65;;;2.30;;
33148;SDS011;19506;51.040;3.856;2023-08-12T10:52:47;16.15;;;4.55;;
33148;SDS011;19506;51.040;3.856;2023-08-12T10:55:16;54.83;;;8.95;;
33148;SDS011;19506;51.040;3.856;2023-08-12T10:57:47;74.03;;;17.40;;
33148;SDS011;19506;51.040;3.856;2023-08-12T11:00:14;75.88;;;17.17;;
33148;SDS011;19506;51.040;3.856;2023-08-12T11:02:45;73.60;;;18.88;;
33148;SDS011;19506;51.040;3.856;2023-08-12T11:05:13;84.93;;;21.73;;
33148;SDS011;19506;51.040;3.856;2023-08-12T11:07:43;71.95;;;17.42;;
33148;SDS011;19506;51.040;3.856;2023-08-12T11:12:35;71.30;;;16.48;;
33148;SDS011;19506;51.040;3.856;2023-08-12T11:15:02;58.38;;;13.63;;
33148;SDS011;19506;51.040;3.856;2023-08-12T11:17:32;61.40;;;12.95;;
33148;SDS011;19506;51.040;3.856;2023-08-12T11:19:59;51.08;;;11.75;;
33148;SDS011;19506;51.040;3.856;2023-08-12T11:22:29;52.63;;;12.85;;
33148;SDS011;19506;51.040;3.856;2023-08-12T11:24:55;51.88;;;12.40;;
33148;SDS011;19506;51.040;3.856;2023-08-12T11:27:21;50.55;;;10.65;;
33148;SDS011;19506;51.040;3.856;2023-08-12T11:29:49;56.28;;;12.82;;
33148;SDS011;19506;51.040;3.856;2023-08-12T11:32:16;47.00;;;10.50;;
33148;SDS011;19506;51.040;3.856;2023-08-12T11:34:42;46.30;;;10.40;;
33148;SDS011;19506;51.040;3.856;2023-08-12T11:37:08;35.38;;;7.80;;
33148;SDS011;19506;51.040;3.856;2023-08-12T11:39:34;30.50;;;7.93;;
33148;SDS011;19506;51.040;3.856;2023-08-12T11:42:00;34.13;;;8.13;;
33148;SDS011;19506;51.040;3.856;2023-08-12T11:44:26;34.45;;;6.82;;
33148;SDS011;19506;51.040;3.856;2023-08-12T11:46:51;38.92;;;8.23;;
33148;SDS011;19506;51.040;3.856;2023-08-12T11:49:17;40.45;;;8.60;;
33148;SDS011;19506;51.040;3.856;2023-08-12T11:51:43;41.03;;;9.73;;
33148;SDS011;19506;51.040;3.856;2023-08-12T11:54:12;47.88;;;8.23;;
33148;SDS011;19506;51.040;3.856;2023-08-12T11:56:38;32.78;;;8.23;;
33148;SDS011;19506;51.040;3.856;2023-08-12T11:59:04;45.08;;;9.85;;
33148;SDS011;19506;51.040;3.856;2023-08-12T12:01:30;45.72;;;8.13;;
33148;SDS011;19506;51.040;3.856;2023-08-12T12:03:59;33.13;;;5.68;;
33148;SDS011;19506;51.040;3.856;2023-08-12T12:06:33;24.00;;;6.20;;
33148;SDS011;19506;51.040;3.856;2023-08-12T12:09:08;26.67;;;5.40;;
33148;SDS011;19506;51.040;3.856;2023-08-12T12:11:38;34.90;;;5.95;;
33148;SDS011;19506;51.040;3.856;2023-08-12T12:14:05;27.58;;;5.28;;
33148;SDS011;19506;51.040;3.856;2023-08-12T12:16:42;26.60;;;6.43;;
33148;SDS011;19506;51.040;3.856;2023-08-12T12:19:17;28.95;;;5.15;;
33148;SDS011;19506;51.040;3.856;2023-08-12T12:21:47;23.33;;;4.75;;
33148;SDS011;19506;51.040;3.856;2023-08-12T12:24:14;31.45;;;5.43;;
33148;SDS011;19506;51.040;3.856;2023-08-12T12:26:40;21.13;;;4.85;;
33148;SDS011;19506;51.040;3.856;2023-08-12T12:29:07;32.28;;;4.75;;
33148;SDS011;19506;51.040;3.856;2023-08-12T12:31:33;23.23;;;4.53;;
33148;SDS011;19506;51.040;3.856;2023-08-12T12:34:04;27.48;;;6.88;;
33148;SDS011;19506;51.040;3.856;2023-08-12T12:36:39;23.25;;;4.38;;
33148;SDS011;19506;51.040;3.856;2023-08-12T12:39:06;21.67;;;4.75;;
33148;SDS011;19506;51.040;3.856;2023-08-12T12:41:32;28.15;;;4.72;;
33148;SDS011;19506;51.040;3.856;2023-08-12T12:44:01;23.95;;;5.70;;
33148;SDS011;19506;51.040;3.856;2023-08-12T12:46:27;26.52;;;6.20;;
33148;SDS011;19506;51.040;3.856;2023-08-12T12:48:53;12.93;;;3.92;;
33148;SDS011;19506;51.040;3.856;2023-08-12T12:51:19;19.73;;;4.63;;
33148;SDS011;19506;51.040;3.856;2023-08-12T12:53:44;18.30;;;3.95;;
33148;SDS011;19506;51.040;3.856;2023-08-12T12:56:10;23.40;;;4.05;;
33148;SDS011;19506;51.040;3.856;2023-08-12T12:58:36;14.27;;;3.50;;
33148;SDS011;19506;51.040;3.856;2023-08-12T13:01:02;11.05;;;4.68;;
33148;SDS011;19506;51.040;3.856;2023-08-12T13:03:29;13.15;;;3.50;;
33148;SDS011;19506;51.040;3.856;2023-08-12T13:05:56;19.70;;;3.25;;
33148;SDS011;19506;51.040;3.856;2023-08-12T13:08:22;12.98;;;3.45;;
33148;SDS011;19506;51.040;3.856;2023-08-12T13:10:48;13.35;;;3.22;;
33148;SDS011;19506;51.040;3.856;2023-08-12T13:13:15;12.90;;;3.13;;
33148;SDS011;19506;51.040;3.856;2023-08-12T13:15:44;14.77;;;3.20;;
33148;SDS011;19506;51.040;3.856;2023-08-12T13:18:10;11.88;;;3.78;;
33148;SDS011;19506;51.040;3.856;2023-08-12T13:20:36;9.90;;;4.20;;
33148;SDS011;19506;51.040;3.856;2023-08-12T13:23:02;9.95;;;3.08;;
33148;SDS011;19506;51.040;3.856;2023-08-12T13:25:29;23.10;;;3.88;;
33148;SDS011;19506;51.040;3.856;2023-08-12T13:27:57;10.20;;;3.28;;
33148;SDS011;19506;51.040;3.856;2023-08-12T13:30:23;12.68;;;3.17;;
33148;SDS011;19506;51.040;3.856;2023-08-12T13:32:49;11.40;;;2.60;;
33148;SDS011;19506;51.040;3.856;2023-08-12T13:35:15;14.77;;;3.00;;
33148;SDS011;19506;51.040;3.856;2023-08-12T13:37:41;10.95;;;2.88;;
33148;SDS011;19506;51.040;3.856;2023-08-12T13:40:07;11.00;;;2.92;;
33148;SDS011;19506;51.040;3.856;2023-08-12T13:42:34;10.25;;;3.33;;
33148;SDS011;19506;51.040;3.856;2023-08-12T13:45:00;14.68;;;2.90;;
33148;SDS011;19506;51.040;3.856;2023-08-12T13:47:26;12.38;;;3.20;;
33148;SDS011;19506;51.040;3.856;2023-08-12T13:49:51;18.25;;;3.28;;
33148;SDS011;19506;51.040;3.856;2023-08-12T13:52:17;14.13;;;4.03;;
33148;SDS011;19506;51.040;3.856;2023-08-12T13:54:42;13.38;;;3.20;;
33148;SDS011;19506;51.040;3.856;2023-08-12T13:57:08;13.57;;;3.28;;
33148;SDS011;19506;51.040;3.856;2023-08-12T13:59:34;14.40;;;3.00;;
33148;SDS011;19506;51.040;3.856;2023-08-12T14:01:59;15.65;;;4.05;;
33148;SDS011;19506;51.040;3.856;2023-08-12T14:04:25;11.55;;;2.83;;
33148;SDS011;19506;51.040;3.856;2023-08-12T14:06:51;13.23;;;3.00;;
33148;SDS011;19506;51.040;3.856;2023-08-12T14:09:16;11.10;;;3.05;;
33148;SDS011;19506;51.040;3.856;2023-08-12T14:11:43;15.82;;;4.03;;
33148;SDS011;19506;51.040;3.856;2023-08-12T14:14:09;17.45;;;3.10;;
33148;SDS011;19506;51.040;3.856;2023-08-12T14:16:35;10.38;;;3.15;;
33148;SDS011;19506;51.040;3.856;2023-08-12T14:19:01;17.80;;;4.03;;
33148;SDS011;19506;51.040;3.856;2023-08-12T14:21:27;11.90;;;3.55;;
33148;SDS011;19506;51.040;3.856;2023-08-12T14:23:53;16.20;;;3.92;;
33148;SDS011;19506;51.040;3.856;2023-08-12T14:26:18;10.82;;;3.15;;
33148;SDS011;19506;51.040;3.856;2023-08-12T14:28:44;11.02;;;3.10;;
33148;SDS011;19506;51.040;3.856;2023-08-12T14:31:10;10.55;;;3.20;;
33148;SDS011;19506;51.040;3.856;2023-08-12T14:33:35;9.10;;;2.95;;
33148;SDS011;19506;51.040;3.856;2023-08-12T14:36:02;11.60;;;2.75;;
33148;SDS011;19506;51.040;3.856;2023-08-12T14:38:29;15.55;;;2.92;;
33148;SDS011;19506;51.040;3.856;2023-08-12T14:40:56;17.38;;;3.30;;